Oberstdorf, Germany

3:39 AM CEST on September 24, 2014 (GMT +0200)
IBAVARIA29 | Change Station
CLOSE
Current Station
Personal Weather Station
Location: Sonthofen, BAVARIA
Elevation: 2461 ft
Nearby Weather Stations

Elev 2461 ft 47.51 °N, 10.28 °E | Updated 1 second ago

Clear
Clear
40.3 °F
Feels Like 40 °F
N
2.3
Wind Variable Wind from SSE
Gusts 2.3 mph

Today
High -- | Low -- °F
--% Chance of Precip.
Yesterday
High -- | Low -- °F
Precip. -- in
7:07 AM 7:13 PM
Waning Crescent, 0% visible
Pressure 30.04 in
Visibility 5.6 miles
Clouds
Windchill 40 °F
Dew Point 39 °F
Humidity 95%
Rainfall 0.00 in
Snow Depth Not available.
UV Not available.
Pollen Not available.
Air Quality Not available.
Flu Activity Not available.
METAR LSZR 240120Z AUTO 20002KT 9000 NCD 06/06 Q1017

More Conditions Fewer Conditions

Pressure 30.04 in
Visibility 5.6 miles
Clouds
Windchill 40 °F
Dew Point 39 °F
Humidity 95%
Rainfall 0.00 in
Snow Depth Not available.
UV Not available.
Pollen Not available.
Air Quality Not available.
Flu Activity Not available.
METAR LSZR 240120Z AUTO 20002KT 9000 NCD 06/06 Q1017

More Conditions Fewer Conditions

10-Day Weather Forecast

Almanac

Astronomy

Sep. 24, 2014 Rise Set
Actual Time 7:07 AM CEST 7:13 PM CEST
Civil Twilight 6:37 AM CEST 7:43 PM CEST
Nautical Twilight 6:01 AM CEST 8:19 PM CEST
Astronomical Twilight 5:24 AM CEST 8:56 PM CEST
Moon 7:14 AM CEST 7:11 PM CEST
Length of Visible Light 13h 06m
Length of Day
12h 05m
Tomorrow will be 3m 23s shorter.
Waning Crescent, 0% of the Moon is Illuminated
Sep 23
Waning Crescent
Sep 24
New
Oct 1
First Quarter
Oct 8
Full
Oct 15
Last Quarter

Yesterday's Extremes

Country Highs Country Lows

Community

WunderPhotos

Upload Photos

1,755,844 photos uploaded!

Nearby

Snow Depth

Not available.

Earthquake Activity

City Distance Mag. Time & Date
No recent earthquake activity has been reported nearby.
Minimum magnitude displayed is 2.5.

Coastal Water Temperatures

Place Temperature
No Stations Reporting

Nearby Weather Stations